Time;durP1;ratioP1;P1;durP2;ratioP2;P2;SDS_P1;SDS_P2;PMS_P1;PMS_P2;Temp;Humidity;BMP_temperature;BMP_pressure;BME280_temperature;BME280_humidity;BME280_pressure;Samples;Min_cycle;Max_cycle;Signal;HPM_P1;HPM_P2
2023/08/11 00:00:46;;;;;;;4.30;1.35;;;;;;;;;;6108338;23;20415;-89
2023/08/11 00:03:43;;;;;;;3.38;1.38;;;;;;;;;;6097796;23;20017;-88
2023/08/11 00:10:34;;;;;;;;;;;;;;;;;;;;;
2023/08/11 00:13:58;;;;;;;9.30;2.10;;;;;;;;;;6004517;23;20020;-88
2023/08/11 00:20:13;;;;;;;;;;;;;;;;;;6023226;23;20046;-89
2023/08/11 00:27:01;;;;;;;4.93;1.90;;;;;;;;;;6181349;23;20029;-88
2023/08/11 00:33:03;;;;;;;4.03;1.70;;;;;;;;;;6134380;23;20023;-88
2023/08/11 00:39:40;;;;;;;6.10;1.85;;;;;;;;;;6069655;23;20037;-90
2023/08/11 00:42:18;;;;;;;9.90;2.50;;;;;;;;;;6058470;23;20027;-90
2023/08/11 00:45:05;;;;;;;7.07;2.05;;;;;;;;;;6062009;23;20018;-90
2023/08/11 00:48:17;;;;;;;6.80;2.13;;;;;;;;;;5952106;24;20090;-89
2023/08/11 00:51:27;;;;;;;;;;;;;;;;;;;;;
2023/08/11 00:54:42;;;;;;;4.05;1.88;;;;;;;;;;6038196;23;20031;-90
2023/08/11 00:57:14;;;;;;;9.10;2.15;;;;;;;;;;6060614;23;20030;-90
2023/08/11 01:07:06;;;;;;;6.03;1.75;;;;;;;;;;6055987;23;20042;-89
2023/08/11 01:09:56;;;;;;;6.95;2.08;;;;;;;;;;6055140;23;20094;-89
2023/08/11 01:12:51;;;;;;;4.90;2.15;;;;;;;;;;5996734;23;20015;-89
2023/08/11 01:18:35;;;;;;;8.57;1.90;;;;;;;;;;6193064;23;20025;-89
2023/08/11 01:21:22;;;;;;;3.63;2.05;;;;;;;;;;6174061;23;20029;-89
2023/08/11 01:24:10;;;;;;;4.50;1.60;;;;;;;;;;6229210;22;20026;-89
2023/08/11 01:27:10;;;;;;;4.05;1.63;;;;;;;;;;6288792;22;20077;-89
2023/08/11 01:29:57;;;;;;;8.23;2.50;;;;;;;;;;6276430;22;20083;-89
2023/08/11 01:32:42;;;;;;;7.32;1.95;;;;;;;;;;6293179;22;20030;-90
2023/08/11 01:39:16;;;;;;;7.85;2.45;;;;;;;;;;6139350;23;20021;-90
2023/08/11 01:42:15;;;;;;;5.53;2.15;;;;;;;;;;6082677;23;20025;-90
2023/08/11 01:44:56;;;;;;;2.63;1.77;;;;;;;;;;6100854;23;20037;-90
2023/08/11 01:48:07;;;;;;;7.88;2.00;;;;;;;;;;6114039;23;20033;-90
2023/08/11 01:58:15;;;;;;;;;;;;;;;;;;6093691;23;20371;-89
2023/08/11 02:01:02;;;;;;;3.40;1.80;;;;;;;;;;6112151;23;19913;-90
2023/08/11 02:03:44;;;;;;;3.92;1.85;;;;;;;;;;6126254;23;20444;-90
2023/08/11 02:10:19;;;;;;;2.00;1.70;;;;;;;;;;6072334;23;20072;-89
2023/08/11 02:13:10;;;;;;;5.03;2.22;;;;;;;;;;6275879;22;20054;-89
2023/08/11 02:15:54;;;;;;;7.68;2.05;;;;;;;;;;6292805;22;20072;-86
2023/08/11 02:18:47;;;;;;;5.70;2.33;;;;;;;;;;6177315;23;20005;-87
2023/08/11 02:24:35;;;;;;;5.28;1.70;;;;;;;;;;6158671;23;20027;-87
2023/08/11 02:27:04;;;;;;;5.38;2.60;;;;;;;;;;6144684;23;20025;-87
2023/08/11 02:39:25;;;;;;;6.80;2.03;;;;;;;;;;6286885;22;20015;-87
2023/08/11 02:42:34;;;;;;;6.40;2.33;;;;;;;;;;6233393;22;20195;-88
2023/08/11 02:48:27;;;;;;;9.80;2.55;;;;;;;;;;6106398;23;20094;-86
2023/08/11 02:51:38;;;;;;;3.20;2.30;;;;;;;;;;6184797;23;20104;-87
2023/08/11 02:58:04;;;;;;;4.85;2.20;;;;;;;;;;6109093;23;20084;-90
2023/08/11 03:04:05;;;;;;;;;;;;;;;;;;5990708;24;20016;-89
2023/08/11 03:07:09;;;;;;;5.15;2.58;;;;;;;;;;5992977;24;19929;-89
2023/08/11 03:10:02;;;;;;;5.45;2.08;;;;;;;;;;6100134;23;20053;-90
2023/08/11 03:13:04;;;;;;;13.50;2.72;;;;;;;;;;6107015;23;20038;-90
2023/08/11 03:15:52;;;;;;;6.45;2.95;;;;;;;;;;6125724;23;20029;-90
2023/08/11 03:18:30;;;;;;;6.22;2.15;;;;;;;;;;6166042;23;20025;-88
2023/08/11 03:21:37;;;;;;;6.97;2.17;;;;;;;;;;6115796;23;20096;-89
2023/08/11 03:27:42;;;;;;;11.48;3.15;;;;;;;;;;6050048;23;20020;-89
2023/08/11 03:34:28;;;;;;;7.07;2.50;;;;;;;;;;6030064;23;20021;-89
2023/08/11 17:02:39;;;;;;;7.85;3.03;;;;;;;;;;6238885;22;21078;-88
2023/08/11 20:21:52;;;;;;;8.57;5.28;;;;;;;;;;6265740;22;20197;-88
2023/08/11 20:24:34;;;;;;;12.43;5.10;;;;;;;;;;6257041;23;20221;-88
2023/08/11 20:27:19;;;;;;;7.25;4.03;;;;;;;;;;6262555;22;20065;-86
2023/08/11 20:30:04;;;;;;;11.02;4.10;;;;;;;;;;6259234;22;20057;-87
2023/08/11 20:32:41;;;;;;;11.88;4.43;;;;;;;;;;6225160;23;20190;-88
2023/08/11 20:35:36;;;;;;;14.35;5.80;;;;;;;;;;6203418;23;20143;-88
2023/08/11 20:38:34;;;;;;;14.38;6.40;;;;;;;;;;6199208;23;20124;-87
2023/08/11 20:41:20;;;;;;;11.20;4.25;;;;;;;;;;6227437;23;20044;-88
2023/08/11 20:43:52;;;;;;;10.07;4.30;;;;;;;;;;6201049;23;20021;-88
2023/08/11 20:46:36;;;;;;;9.48;4.70;;;;;;;;;;6184844;23;20357;-86
2023/08/11 20:49:46;;;;;;;13.23;6.93;;;;;;;;;;6200706;23;20028;-87
2023/08/11 20:52:36;;;;;;;11.13;6.50;;;;;;;;;;6203418;23;20025;-87
2023/08/11 20:55:16;;;;;;;12.68;6.63;;;;;;;;;;6224938;23;20032;-87
2023/08/11 20:57:51;;;;;;;20.40;7.97;;;;;;;;;;6199458;23;20063;-88
2023/08/11 21:00:41;;;;;;;15.65;8.25;;;;;;;;;;6198764;23;20036;-88
2023/08/11 21:03:12;;;;;;;16.45;8.63;;;;;;;;;;6199579;23;20167;-87
2023/08/11 21:06:13;;;;;;;12.52;8.75;;;;;;;;;;6200577;23;20082;-88
2023/08/11 21:08:51;;;;;;;19.65;12.02;;;;;;;;;;6201778;22;20147;-87
2023/08/11 21:12:13;;;;;;;;;;;;;;;;;;;;;
2023/08/11 21:15:08;;;;;;;27.45;12.23;;;;;;;;;;6286738;22;20267;-87
2023/08/11 21:17:56;;;;;;;17.08;10.20;;;;;;;;;;6286810;22;20241;-87
2023/08/11 21:20:53;;;;;;;20.52;10.73;;;;;;;;;;6283507;22;20026;-87
2023/08/11 21:23:37;;;;;;;19.45;10.15;;;;;;;;;;6241078;22;20067;-87
2023/08/11 21:26:22;;;;;;;22.02;9.77;;;;;;;;;;6284584;22;20405;-87
2023/08/11 21:29:06;;;;;;;20.27;10.77;;;;;;;;;;6283396;22;20107;-87
2023/08/11 21:31:53;;;;;;;;;;;;;;;;;;;;;
2023/08/11 21:34:38;;;;;;;19.88;10.98;;;;;;;;;;6163749;23;20021;-87
2023/08/11 21:37:25;;;;;;;29.15;10.32;;;;;;;;;;6161403;23;20026;-87
2023/08/11 21:40:10;;;;;;;24.27;11.60;;;;;;;;;;6160004;23;20048;-87
2023/08/11 21:42:52;;;;;;;24.15;11.35;;;;;;;;;;6156959;23;20049;-87
2023/08/11 21:45:26;;;;;;;29.30;13.45;;;;;;;;;;6161138;23;20090;-86
2023/08/11 21:48:15;;;;;;;24.83;13.47;;;;;;;;;;6075537;23;20026;-86
2023/08/11 21:51:08;;;;;;;31.35;15.77;;;;;;;;;;6051513;23;20153;-87
2023/08/11 21:53:47;;;;;;;28.63;12.65;;;;;;;;;;6049510;23;20031;-87
2023/08/11 21:56:32;;;;;;;31.65;14.10;;;;;;;;;;6046360;23;20425;-87
2023/08/11 21:59:04;;;;;;;30.27;13.70;;;;;;;;;;6046596;23;20079;-87
2023/08/11 22:01:48;;;;;;;38.25;16.27;;;;;;;;;;6051347;23;20037;-87
2023/08/11 22:04:45;;;;;;;29.00;13.52;;;;;;;;;;6049827;23;20023;-90
2023/08/11 22:07:14;;;;;;;20.80;9.23;;;;;;;;;;6072469;23;20588;-90
2023/08/11 22:09:52;;;;;;;18.65;8.20;;;;;;;;;;6050051;23;20065;-90
2023/08/11 22:12:26;;;;;;;15.25;7.13;;;;;;;;;;6157505;23;20396;-91
2023/08/11 22:14:59;;;;;;;15.65;6.63;;;;;;;;;;6223556;23;20025;-89
2023/08/11 22:17:56;;;;;;;17.17;7.68;;;;;;;;;;6200306;23;20024;-89
2023/08/11 22:20:31;;;;;;;20.73;7.53;;;;;;;;;;6196497;23;20517;-90
2023/08/11 22:23:01;;;;;;;18.77;9.68;;;;;;;;;;6227961;23;20019;-90
2023/08/11 22:25:36;;;;;;;18.75;8.93;;;;;;;;;;6232676;22;20031;-90
2023/08/11 22:28:05;;;;;;;13.10;6.95;;;;;;;;;;6283826;22;20405;-90
2023/08/11 22:30:38;;;;;;;14.13;5.85;;;;;;;;;;6283615;22;20038;-91
2023/08/11 22:33:06;;;;;;;14.73;5.65;;;;;;;;;;6289290;22;20035;-90
2023/08/11 22:35:41;;;;;;;14.07;6.05;;;;;;;;;;6297044;22;20046;-91
2023/08/11 22:38:40;;;;;;;15.90;6.30;;;;;;;;;;6281546;22;20028;-89
2023/08/11 22:41:09;;;;;;;16.60;5.95;;;;;;;;;;6288050;22;20071;-89
2023/08/11 22:43:43;;;;;;;9.35;4.93;;;;;;;;;;6286902;22;20143;-90
2023/08/11 22:46:15;;;;;;;10.82;4.82;;;;;;;;;;6285262;22;20020;-90
2023/08/11 22:49:00;;;;;;;11.02;5.53;;;;;;;;;;6283693;22;20019;-90
2023/08/11 22:51:30;;;;;;;;;;;;;;;;;;6283349;22;20106;-90
2023/08/11 22:54:09;;;;;;;8.85;4.53;;;;;;;;;;6284898;22;19915;-89
2023/08/11 22:56:52;;;;;;;;;;;;;;;;;;;;;
2023/08/11 22:59:26;;;;;;;7.93;3.75;;;;;;;;;;6283972;22;20072;-89
2023/08/11 23:02:02;;;;;;;6.80;3.92;;;;;;;;;;6284447;22;20232;-89
2023/08/11 23:04:54;;;;;;;9.10;4.38;;;;;;;;;;6286186;22;20242;-86
2023/08/11 23:12:57;;;;;;;10.23;3.90;;;;;;;;;;6250585;22;20393;-90
2023/08/11 23:15:27;;;;;;;7.25;3.83;;;;;;;;;;6290157;22;20012;-89
2023/08/11 23:17:59;;;;;;;9.95;3.67;;;;;;;;;;6293390;22;20023;-90
2023/08/11 23:20:40;;;;;;;7.10;3.42;;;;;;;;;;6293114;22;20018;-90
2023/08/11 23:23:29;;;;;;;10.50;3.80;;;;;;;;;;6291267;22;20016;-90
2023/08/11 23:26:01;;;;;;;6.63;4.00;;;;;;;;;;6294231;22;20030;-90
2023/08/11 23:28:47;;;;;;;10.38;3.55;;;;;;;;;;6297197;22;20020;-90
2023/08/11 23:31:28;;;;;;;9.65;3.95;;;;;;;;;;6293539;22;20023;-87
2023/08/11 23:34:13;;;;;;;10.00;4.15;;;;;;;;;;6289579;22;20024;-87
2023/08/11 23:37:00;;;;;;;10.45;3.67;;;;;;;;;;6283117;22;20024;-87
2023/08/11 23:39:53;;;;;;;5.78;3.38;;;;;;;;;;6279381;22;20043;-88
2023/08/11 23:42:57;;;;;;;15.70;3.63;;;;;;;;;;6284868;22;20149;-88
2023/08/11 23:45:44;;;;;;;6.30;2.97;;;;;;;;;;6267433;22;20055;-87
2023/08/11 23:51:33;;;;;;;5.75;3.55;;;;;;;;;;6288232;22;19911;-88
2023/08/11 23:54:18;;;;;;;10.07;3.85;;;;;;;;;;6288851;22;20035;-88
2023/08/11 23:56:54;;;;;;;7.03;4.57;;;;;;;;;;6288794;22;20101;-88
2023/08/11 23:59:34;;;;;;;8.77;3.60;;;;;;;;;;6289308;22;20131;-88
